createdAt,value
2023-07-09T00:01:53.112Z,9.07
2023-07-09T00:04:01.672Z,6.93
2023-07-09T00:06:10.736Z,5.77
2023-07-09T00:08:24.338Z,6.00
2023-07-09T00:10:36.155Z,9.67
2023-07-09T00:12:44.689Z,6.80
2023-07-09T00:14:58.259Z,6.47
2023-07-09T00:17:10.544Z,5.30
2023-07-09T00:19:20.222Z,6.27
2023-07-09T00:21:34.916Z,5.70
2023-07-09T00:23:46.307Z,5.87
2023-07-09T00:25:56.326Z,7.13
2023-07-09T00:28:04.879Z,6.20
2023-07-09T00:30:17.691Z,8.20
2023-07-09T00:32:26.351Z,5.43
2023-07-09T00:34:34.863Z,5.37
2023-07-09T00:36:45.171Z,5.00
2023-07-09T00:38:53.860Z,4.97
2023-07-09T00:41:05.698Z,5.83
2023-07-09T00:43:17.539Z,6.10
2023-07-09T00:45:27.031Z,5.30
2023-07-09T00:47:44.242Z,5.57
2023-07-09T00:49:58.456Z,5.80
2023-07-09T00:52:21.898Z,4.93
2023-07-09T00:54:32.040Z,5.17
2023-07-09T00:56:43.194Z,5.17
2023-07-09T00:58:51.838Z,7.50
2023-07-09T01:01:04.241Z,6.97
2023-07-09T01:03:14.829Z,8.73
2023-07-09T01:05:24.170Z,6.00
2023-07-09T01:07:33.276Z,5.30
2023-07-09T01:09:42.453Z,6.23
2023-07-09T01:11:52.554Z,5.20
2023-07-09T01:14:03.413Z,6.23
2023-07-09T01:16:12.085Z,5.40
2023-07-09T01:18:22.361Z,8.13
2023-07-09T01:20:31.090Z,4.30
2023-07-09T01:22:39.937Z,5.80
2023-07-09T01:24:53.835Z,5.23
2023-07-09T01:27:03.160Z,5.03
2023-07-09T01:29:11.610Z,5.43
2023-07-09T01:31:21.823Z,4.80
2023-07-09T01:33:30.440Z,6.97
2023-07-09T01:35:42.117Z,5.93
2023-07-09T01:37:51.524Z,6.00
2023-07-09T01:40:02.468Z,6.37
2023-07-09T01:42:11.238Z,7.87
2023-07-09T01:44:19.807Z,5.40
2023-07-09T01:46:28.362Z,6.37
2023-07-09T01:48:42.042Z,5.50
2023-07-09T01:50:51.629Z,5.13
2023-07-09T01:53:04.727Z,5.93
2023-07-09T01:55:13.916Z,10.60
2023-07-09T01:57:24.276Z,5.97
2023-07-09T01:59:34.085Z,4.50
2023-07-09T02:01:46.294Z,4.77
2023-07-09T02:03:54.939Z,4.90
2023-07-09T02:06:11.052Z,5.83
2023-07-09T02:08:21.371Z,5.47
2023-07-09T02:10:29.908Z,7.10
2023-07-09T02:12:37.411Z,5.70
2023-07-09T02:14:46.635Z,5.77
2023-07-09T02:16:55.145Z,6.30
2023-07-09T02:19:03.593Z,7.33
2023-07-09T02:21:12.116Z,5.20
2023-07-09T02:23:22.022Z,6.23
2023-07-09T02:25:30.839Z,8.17
2023-07-09T02:27:39.525Z,5.57
2023-07-09T02:29:48.041Z,5.97
2023-07-09T02:31:57.976Z,4.67
2023-07-09T02:34:06.536Z,7.80
2023-07-09T02:36:15.070Z,4.83
2023-07-09T02:38:24.987Z,6.80
2023-07-09T02:40:35.002Z,7.00
2023-07-09T02:42:43.763Z,5.17
2023-07-09T02:44:52.550Z,7.57
2023-07-09T02:47:01.191Z,4.97
2023-07-09T02:49:10.209Z,5.00
2023-07-09T02:51:20.384Z,5.17
2023-07-09T02:53:30.618Z,4.87
2023-07-09T02:55:39.080Z,6.60
2023-07-09T02:57:47.774Z,4.83
2023-07-09T02:59:56.262Z,5.63
2023-07-09T03:02:05.266Z,4.57
2023-07-09T03:04:14.165Z,4.53
2023-07-09T03:06:22.959Z,5.20
2023-07-09T03:08:32.888Z,8.17
2023-07-09T03:10:41.372Z,5.10
2023-07-09T03:12:53.941Z,4.83
2023-07-09T03:15:02.512Z,5.83
2023-07-09T03:17:12.950Z,4.70
2023-07-09T03:19:21.535Z,5.17
2023-07-09T03:21:30.590Z,5.53
2023-07-09T03:23:42.302Z,6.93
2023-07-09T03:25:53.267Z,6.63
2023-07-09T03:28:01.841Z,7.03
2023-07-09T03:30:10.661Z,5.07
2023-07-09T03:32:19.213Z,5.40
2023-07-09T03:34:27.642Z,6.63
2023-07-09T03:36:38.325Z,6.90
2023-07-09T03:38:48.205Z,4.90
2023-07-09T03:40:57.150Z,4.87
2023-07-09T03:43:06.596Z,5.27
2023-07-09T03:45:15.522Z,10.60
2023-07-09T03:47:24.006Z,5.00
2023-07-09T03:49:32.712Z,4.80
2023-07-09T03:51:41.241Z,4.93
2023-07-09T03:53:51.185Z,5.30
2023-07-09T03:56:01.730Z,6.83
2023-07-09T03:58:11.148Z,5.60
2023-07-09T04:00:21.546Z,6.00
2023-07-09T04:02:30.410Z,5.80
2023-07-09T04:04:38.884Z,7.00
2023-07-09T04:06:47.400Z,5.60
2023-07-09T04:08:57.306Z,8.20
2023-07-09T04:11:06.226Z,5.77
2023-07-09T04:13:15.071Z,7.57
2023-07-09T04:15:23.900Z,6.00
2023-07-09T04:17:32.382Z,6.37
2023-07-09T04:19:40.890Z,7.37
2023-07-09T04:21:49.366Z,7.23
2023-07-09T04:24:01.072Z,6.43
2023-07-09T04:26:11.526Z,6.17
2023-07-09T04:28:20.490Z,6.17
2023-07-09T04:30:28.966Z,5.97
2023-07-09T04:32:37.671Z,6.03
2023-07-09T04:34:46.609Z,7.40
2023-07-09T04:36:55.137Z,6.97
2023-07-09T04:39:05.689Z,7.10
2023-07-09T04:41:14.162Z,6.60
2023-07-09T04:43:22.570Z,6.13
2023-07-09T04:45:31.129Z,6.27
2023-07-09T04:47:41.761Z,6.63
2023-07-09T04:49:50.322Z,6.50
2023-07-09T04:52:00.392Z,6.33
2023-07-09T04:54:10.359Z,6.40
2023-07-09T04:56:18.978Z,6.30
2023-07-09T04:58:28.760Z,6.50
2023-07-09T05:00:37.224Z,6.10
2023-07-09T05:02:45.747Z,8.27
2023-07-09T05:04:54.838Z,6.00
2023-07-09T05:07:03.365Z,6.60
2023-07-09T05:09:13.278Z,6.07
2023-07-09T05:11:21.735Z,5.70
2023-07-09T05:13:33.073Z,6.33
2023-07-09T05:15:43.337Z,7.20
2023-07-09T05:17:52.879Z,6.00
2023-07-09T05:20:01.519Z,6.37
2023-07-09T05:22:10.025Z,6.63
2023-07-09T05:24:22.698Z,9.47
2023-07-09T05:26:31.226Z,6.40
2023-07-09T05:28:39.748Z,6.20
2023-07-09T05:30:48.183Z,7.73
2023-07-09T05:32:58.604Z,6.90
2023-07-09T05:35:07.550Z,6.23
2023-07-09T05:37:15.997Z,7.37
2023-07-09T05:39:25.922Z,6.93
2023-07-09T05:41:34.438Z,6.27
2023-07-09T05:43:43.006Z,6.70
2023-07-09T05:45:51.448Z,9.50
2023-07-09T05:48:00.519Z,6.37
2023-07-09T05:50:09.555Z,6.20
2023-07-09T05:52:18.410Z,6.10
2023-07-09T05:54:30.939Z,6.30
2023-07-09T05:56:39.446Z,5.90
2023-07-09T05:58:48.628Z,6.03
2023-07-09T06:00:58.783Z,5.93
2023-07-09T06:03:08.762Z,6.30
2023-07-09T06:05:18.170Z,6.60
2023-07-09T06:07:26.758Z,6.03
2023-07-09T06:09:36.705Z,5.97
2023-07-09T06:11:45.709Z,5.90
2023-07-09T06:13:54.288Z,5.77
2023-07-09T06:16:03.359Z,5.90
2023-07-09T06:18:12.451Z,5.77
2023-07-09T06:20:20.998Z,5.60
2023-07-09T06:22:32.645Z,6.50
2023-07-09T06:24:42.593Z,7.50
2023-07-09T06:26:53.174Z,5.63
2023-07-09T06:29:01.623Z,7.67
2023-07-09T06:31:10.165Z,6.20
2023-07-09T06:33:19.246Z,5.60
2023-07-09T06:35:27.807Z,6.43
2023-07-09T06:37:36.311Z,5.90
2023-07-09T06:39:46.744Z,6.40
2023-07-09T06:41:55.296Z,5.73
2023-07-09T06:44:03.838Z,5.40
2023-07-09T06:46:14.684Z,5.70
2023-07-09T06:48:23.293Z,5.83
2023-07-09T06:50:32.107Z,6.43
2023-07-09T06:52:40.596Z,6.53
2023-07-09T06:54:52.254Z,6.33
2023-07-09T06:57:02.286Z,5.70
2023-07-09T06:59:11.406Z,6.17
2023-07-09T07:01:21.541Z,5.97
2023-07-09T07:03:30.595Z,8.80
2023-07-09T07:05:40.313Z,6.30
2023-07-09T07:07:50.405Z,5.80
2023-07-09T07:10:00.255Z,5.73
2023-07-09T07:12:09.141Z,6.37
2023-07-09T07:14:19.501Z,5.80
2023-07-09T07:16:28.179Z,7.20
2023-07-09T07:18:36.694Z,6.37
2023-07-09T07:20:45.772Z,6.23
2023-07-09T07:22:54.209Z,5.07
2023-07-09T07:25:04.139Z,4.93
2023-07-09T07:27:12.683Z,4.60
2023-07-09T07:29:21.176Z,4.20
2023-07-09T07:31:29.633Z,4.83
2023-07-09T07:33:38.556Z,5.20
2023-07-09T07:36:06.737Z,5.20
2023-07-09T07:38:15.623Z,5.20
2023-07-09T07:40:25.927Z,5.60
2023-07-09T07:42:34.618Z,4.90
2023-07-09T07:44:43.071Z,5.23
2023-07-09T07:46:54.184Z,5.23
2023-07-09T07:49:02.823Z,4.83
2023-07-09T07:51:12.019Z,5.50
2023-07-09T07:53:20.481Z,5.23
2023-07-09T07:55:30.485Z,5.20
2023-07-09T07:57:38.969Z,5.37
2023-07-09T07:59:48.297Z,5.00
2023-07-09T08:01:56.794Z,3.60
2023-07-09T08:04:05.890Z,4.23
2023-07-09T08:06:17.015Z,3.83
2023-07-09T08:08:25.568Z,3.30
2023-07-09T08:10:35.444Z,5.60
2023-07-09T08:12:43.932Z,5.57
2023-07-09T08:14:52.489Z,5.57
2023-07-09T08:17:03.747Z,5.03
2023-07-09T08:19:12.305Z,4.37
2023-07-09T08:21:20.822Z,3.70
2023-07-09T08:23:29.359Z,3.13
2023-07-09T08:25:39.277Z,4.77
2023-07-09T08:27:47.775Z,3.37
2023-07-09T08:29:56.247Z,3.47
2023-07-09T08:32:04.858Z,5.60
2023-07-09T08:34:13.438Z,5.97
2023-07-09T08:36:21.901Z,2.70
2023-07-09T08:38:29.580Z,3.23
2023-07-09T08:40:43.075Z,2.80
2023-07-09T08:43:01.584Z,2.83
2023-07-09T08:45:16.670Z,2.87
2023-07-09T08:47:29.731Z,3.50
2023-07-09T08:49:41.312Z,3.87
2023-07-09T08:51:52.080Z,4.57
2023-07-09T08:54:01.150Z,3.33
2023-07-09T08:56:12.693Z,4.17
2023-07-09T08:58:25.038Z,2.63
2023-07-09T09:00:35.099Z,4.03
2023-07-09T09:02:46.137Z,2.60
2023-07-09T09:04:54.941Z,3.70
2023-07-09T09:07:08.407Z,3.37
2023-07-09T09:09:23.577Z,2.67
2023-07-09T09:11:36.457Z,2.67
2023-07-09T09:13:45.765Z,3.50
2023-07-09T09:15:54.833Z,2.87
2023-07-09T09:18:19.560Z,2.87
2023-07-09T09:20:29.681Z,3.13
2023-07-09T09:22:43.653Z,2.90
2023-07-09T09:24:58.178Z,2.83
2023-07-09T09:27:08.156Z,2.27
2023-07-09T09:29:18.023Z,2.60
2023-07-09T09:31:27.601Z,2.70
2023-07-09T09:33:39.776Z,2.80
2023-07-09T09:35:50.229Z,2.77
2023-07-09T09:38:01.658Z,3.17
2023-07-09T09:40:17.578Z,2.87
2023-07-09T09:42:28.195Z,2.70
2023-07-09T09:44:37.235Z,2.60
2023-07-09T09:46:45.828Z,3.00
2023-07-09T09:48:57.444Z,2.70
2023-07-09T09:51:07.511Z,2.80
2023-07-09T09:53:21.092Z,2.77
2023-07-09T09:55:31.944Z,3.13
2023-07-09T09:57:41.946Z,3.13
2023-07-09T09:59:50.548Z,2.43
2023-07-09T10:02:00.281Z,2.57
2023-07-09T10:04:09.112Z,2.60
2023-07-09T10:06:19.745Z,2.83
2023-07-09T10:08:32.214Z,2.83
2023-07-09T10:10:42.801Z,2.90
2023-07-09T10:12:54.163Z,3.67
2023-07-09T10:15:03.843Z,2.90
2023-07-09T10:17:17.954Z,3.40
2023-07-09T10:19:28.631Z,2.80
2023-07-09T10:21:42.221Z,3.13
2023-07-09T10:23:55.435Z,3.57
2023-07-09T10:26:05.603Z,3.08
2023-07-09T10:28:24.493Z,5.93
2023-07-09T10:30:44.793Z,3.00
2023-07-09T10:33:00.952Z,3.13
2023-07-09T10:35:13.027Z,4.10
2023-07-09T10:37:29.640Z,4.37
2023-07-09T10:39:40.627Z,2.80
2023-07-09T10:41:49.988Z,2.57
2023-07-09T10:44:02.295Z,2.70
2023-07-09T10:46:14.547Z,3.20
2023-07-09T10:48:32.869Z,2.63
2023-07-09T10:50:42.897Z,2.27
2023-07-09T10:52:53.302Z,2.77
2023-07-09T10:55:05.894Z,2.57
2023-07-09T10:57:16.055Z,2.73
2023-07-09T10:59:29.327Z,3.43
2023-07-09T11:01:40.473Z,2.97
2023-07-09T11:03:52.388Z,2.60
2023-07-09T11:06:01.424Z,2.60
2023-07-09T11:08:12.743Z,3.20
2023-07-09T11:10:24.860Z,2.53
2023-07-09T11:12:36.588Z,2.80
2023-07-09T11:14:50.699Z,2.50
2023-07-09T11:17:04.220Z,2.70
2023-07-09T11:19:17.044Z,2.50
2023-07-09T11:21:25.606Z,4.13
2023-07-09T11:23:41.035Z,2.40
2023-07-09T11:25:50.665Z,2.43
2023-07-09T11:28:05.907Z,3.03
2023-07-09T11:30:23.277Z,2.80
2023-07-09T11:32:32.145Z,2.93
2023-07-09T11:34:48.138Z,2.47
2023-07-09T11:37:03.012Z,2.63
2023-07-09T11:39:21.169Z,2.70
2023-07-09T11:41:30.986Z,3.63
2023-07-09T11:43:49.743Z,2.70
2023-07-09T11:46:02.869Z,3.17
2023-07-09T11:48:19.214Z,2.63
2023-07-09T11:50:30.700Z,2.80
2023-07-09T11:52:41.840Z,2.60
2023-07-09T11:54:52.538Z,2.47
2023-07-09T11:57:02.635Z,2.77
2023-07-09T11:59:13.901Z,2.60
2023-07-09T12:01:26.055Z,2.60
2023-07-09T12:03:37.694Z,2.23
2023-07-09T12:05:50.951Z,4.00
2023-07-09T12:08:00.527Z,2.60
2023-07-09T12:10:18.890Z,3.03
2023-07-09T12:12:28.891Z,2.53
2023-07-09T12:14:37.418Z,2.60
2023-07-09T12:16:48.347Z,2.53
2023-07-09T12:18:56.975Z,2.57
2023-07-09T12:21:05.992Z,2.40
2023-07-09T12:23:20.042Z,2.80
2023-07-09T12:25:34.133Z,2.57
2023-07-09T12:27:44.822Z,3.13
2023-07-09T12:29:54.179Z,2.93
2023-07-09T12:32:06.563Z,2.40
2023-07-09T12:34:16.115Z,4.20
2023-07-09T12:36:26.429Z,3.00
2023-07-09T12:38:41.914Z,2.60
2023-07-09T12:40:51.226Z,2.53
2023-07-09T12:43:00.344Z,3.63
2023-07-09T12:45:19.729Z,2.80
2023-07-09T12:47:31.041Z,2.77
2023-07-09T12:49:42.390Z,2.80
2023-07-09T12:51:50.964Z,2.83
2023-07-09T12:54:16.106Z,2.70
2023-07-09T12:56:24.664Z,3.77
2023-07-09T12:58:34.247Z,2.60
2023-07-09T13:00:43.253Z,2.50
2023-07-09T13:02:57.695Z,5.33
2023-07-09T13:05:08.938Z,3.53
2023-07-09T13:07:28.527Z,3.37
2023-07-09T13:09:37.034Z,2.47
2023-07-09T13:11:47.983Z,3.60
2023-07-09T13:13:59.937Z,3.03
2023-07-09T13:16:10.597Z,2.80
2023-07-09T13:18:20.612Z,3.10
2023-07-09T13:20:28.505Z,2.53
2023-07-09T13:22:37.946Z,2.60
2023-07-09T13:24:48.108Z,2.63
2023-07-09T13:26:59.850Z,3.73
2023-07-09T13:29:13.593Z,3.57
2023-07-09T13:31:23.415Z,2.53
2023-07-09T13:33:33.350Z,3.23
2023-07-09T13:35:41.897Z,3.70
2023-07-09T13:37:50.375Z,2.47
2023-07-09T13:39:59.497Z,2.50
2023-07-09T13:42:11.357Z,3.20
2023-07-09T13:44:21.655Z,2.47
2023-07-09T13:46:30.062Z,2.63
2023-07-09T13:48:40.896Z,2.60
2023-07-09T13:50:50.714Z,2.87
2023-07-09T13:52:59.163Z,2.27
2023-07-09T13:55:08.343Z,2.40
2023-07-09T13:57:17.640Z,2.40
2023-07-09T13:59:27.196Z,1.93
2023-07-09T14:01:35.710Z,2.83
2023-07-09T14:03:45.766Z,2.20
2023-07-09T14:05:54.739Z,2.40
2023-07-09T14:08:03.265Z,3.20
2023-07-09T14:10:14.080Z,2.67
2023-07-09T14:12:22.825Z,2.37
2023-07-09T14:14:33.718Z,2.07
2023-07-09T14:16:42.225Z,2.00
2023-07-09T14:18:52.296Z,2.27
2023-07-09T14:21:01.044Z,2.27
2023-07-09T14:23:11.551Z,2.33
2023-07-09T14:25:21.474Z,4.10
2023-07-09T14:27:30.109Z,2.23
2023-07-09T14:29:38.622Z,2.57
2023-07-09T14:31:47.921Z,2.40
2023-07-09T14:33:58.215Z,2.23
2023-07-09T14:36:06.914Z,2.33
2023-07-09T14:38:18.918Z,2.10
2023-07-09T14:40:27.966Z,2.10
2023-07-09T14:42:36.560Z,1.93
2023-07-09T14:44:45.083Z,2.10
2023-07-09T14:46:54.063Z,2.17
2023-07-09T14:49:03.064Z,1.90
2023-07-09T14:51:15.432Z,2.20
2023-07-09T14:53:24.867Z,2.30
2023-07-09T14:55:36.178Z,2.30
2023-07-09T14:57:44.768Z,2.30
2023-07-09T14:59:53.447Z,2.17
2023-07-09T15:02:02.144Z,2.30
2023-07-09T15:04:26.909Z,2.33
2023-07-09T15:06:35.704Z,2.37
2023-07-09T15:08:44.131Z,1.97
2023-07-09T15:10:53.285Z,1.97
2023-07-09T15:13:01.856Z,2.47
2023-07-09T15:15:15.715Z,2.40
2023-07-09T15:17:24.212Z,2.40
2023-07-09T15:19:34.120Z,2.23
2023-07-09T15:21:42.779Z,2.20
2023-07-09T15:23:51.413Z,2.77
2023-07-09T15:26:00.127Z,2.10
2023-07-09T15:28:08.608Z,2.47
2023-07-09T15:30:17.986Z,2.10
2023-07-09T15:32:26.513Z,2.17
2023-07-09T15:34:36.451Z,2.50
2023-07-09T15:36:46.240Z,3.07
2023-07-09T15:38:54.726Z,2.20
2023-07-09T15:41:04.421Z,2.07
2023-07-09T15:43:13.280Z,3.07
2023-07-09T15:45:22.156Z,2.27
2023-07-09T15:47:30.822Z,2.20
2023-07-09T15:49:43.254Z,2.00
2023-07-09T15:51:51.764Z,2.10
2023-07-09T15:54:00.347Z,2.00
2023-07-09T15:56:14.122Z,2.07
2023-07-09T15:58:24.567Z,2.30
2023-07-09T16:00:35.485Z,2.20
2023-07-09T16:02:44.065Z,2.00
2023-07-09T16:04:53.897Z,2.10
2023-07-09T16:07:03.190Z,2.00
2023-07-09T16:09:12.757Z,2.07
2023-07-09T16:11:23.233Z,2.10
2023-07-09T16:13:31.779Z,2.70
2023-07-09T16:15:40.365Z,2.27
2023-07-09T16:17:49.358Z,2.20
2023-07-09T16:19:59.427Z,2.17
2023-07-09T16:22:08.260Z,2.13
2023-07-09T16:24:19.735Z,2.30
2023-07-09T16:26:28.285Z,2.07
2023-07-09T16:28:36.760Z,2.40
2023-07-09T16:30:45.281Z,2.43
2023-07-09T16:32:54.147Z,2.10
2023-07-09T16:35:04.327Z,2.27
2023-07-09T16:37:19.840Z,2.30
2023-07-09T16:39:29.837Z,2.23
2023-07-09T16:41:38.392Z,2.17
2023-07-09T16:43:46.913Z,2.20
2023-07-09T16:45:55.540Z,2.07
2023-07-09T16:48:04.133Z,2.27
2023-07-09T16:50:18.317Z,2.03
2023-07-09T16:52:28.413Z,2.20
2023-07-09T16:54:37.024Z,3.97
2023-07-09T16:56:45.437Z,2.20
2023-07-09T16:58:53.879Z,2.30
2023-07-09T17:01:04.633Z,2.10
2023-07-09T17:03:14.619Z,2.03
2023-07-09T17:05:26.158Z,2.30
2023-07-09T17:07:36.477Z,2.23
2023-07-09T17:09:45.043Z,2.23
2023-07-09T17:11:57.634Z,2.00
2023-07-09T17:14:06.239Z,2.20
2023-07-09T17:16:15.037Z,2.13
2023-07-09T17:18:26.277Z,2.00
2023-07-09T17:20:36.128Z,2.67
2023-07-09T17:22:44.789Z,2.50
2023-07-09T17:24:53.409Z,3.00
2023-07-09T17:27:01.935Z,2.77
2023-07-09T17:29:12.833Z,2.23
2023-07-09T17:31:21.323Z,2.00
2023-07-09T17:33:30.733Z,2.10
2023-07-09T17:35:40.984Z,2.00
2023-07-09T17:37:50.217Z,2.20
2023-07-09T17:39:58.791Z,2.80
2023-07-09T17:42:07.588Z,1.93
2023-07-09T17:44:20.683Z,1.73
2023-07-09T17:46:29.174Z,1.80
2023-07-09T17:48:38.789Z,2.03
2023-07-09T17:50:48.718Z,2.20
2023-07-09T17:52:59.109Z,1.93
2023-07-09T17:55:06.721Z,2.10
2023-07-09T17:57:16.773Z,2.70
2023-07-09T17:59:26.345Z,1.97
2023-07-09T18:01:34.889Z,2.23
2023-07-09T18:03:43.502Z,5.20
2023-07-09T18:05:53.399Z,2.80
2023-07-09T18:08:04.824Z,1.93
2023-07-09T18:10:14.853Z,2.00
2023-07-09T18:12:24.763Z,2.20
2023-07-09T18:14:36.366Z,2.43
2023-07-09T18:16:44.811Z,1.97
2023-07-09T18:18:53.216Z,1.80
2023-07-09T18:21:03.062Z,2.00
2023-07-09T18:23:11.857Z,2.07
2023-07-09T18:25:20.874Z,1.80
2023-07-09T18:27:30.201Z,2.03
2023-07-09T18:29:39.247Z,1.90
2023-07-09T18:31:47.737Z,1.93
2023-07-09T18:33:56.374Z,1.80
2023-07-09T18:36:06.467Z,2.13
2023-07-09T18:38:15.196Z,2.00
2023-07-09T18:40:23.120Z,1.80
2023-07-09T18:42:32.999Z,2.73
2023-07-09T18:44:44.895Z,2.43
2023-07-09T18:46:53.594Z,3.10
2023-07-09T18:49:02.071Z,2.43
2023-07-09T18:51:13.220Z,1.93
2023-07-09T18:53:23.432Z,2.00
2023-07-09T18:55:32.390Z,2.20
2023-07-09T18:57:40.887Z,1.80
2023-07-09T18:59:49.394Z,1.80
2023-07-09T19:01:57.895Z,2.00
2023-07-09T19:04:07.624Z,3.00
2023-07-09T19:06:17.546Z,2.23
2023-07-09T19:08:27.036Z,2.13
2023-07-09T19:10:35.495Z,2.90
2023-07-09T19:12:45.191Z,3.73
2023-07-09T19:14:53.666Z,2.27
2023-07-09T19:17:03.782Z,2.30
2023-07-09T19:19:17.345Z,3.43
2023-07-09T19:21:27.220Z,2.30
2023-07-09T19:23:36.488Z,2.47
2023-07-09T19:25:44.956Z,2.43
2023-07-09T19:27:54.423Z,2.90
2023-07-09T19:30:02.952Z,3.03
2023-07-09T19:32:14.915Z,4.63
2023-07-09T19:34:24.418Z,3.70
2023-07-09T19:36:34.314Z,2.50
2023-07-09T19:38:42.753Z,2.40
2023-07-09T19:40:51.250Z,2.83
2023-07-09T19:42:59.812Z,2.40
2023-07-09T19:45:08.790Z,2.70
2023-07-09T19:47:20.463Z,2.67
2023-07-09T19:49:28.894Z,3.10
2023-07-09T19:51:38.974Z,3.27
2023-07-09T19:53:47.612Z,2.77
2023-07-09T19:55:56.760Z,2.90
2023-07-09T19:58:05.214Z,2.63
2023-07-09T20:00:14.063Z,2.77
2023-07-09T20:02:23.398Z,2.60
2023-07-09T20:04:31.930Z,3.40
2023-07-09T20:06:41.856Z,2.70
2023-07-09T20:08:50.332Z,2.93
2023-07-09T20:11:00.313Z,2.60
2023-07-09T20:13:13.653Z,2.80
2023-07-09T20:15:24.116Z,2.83
2023-07-09T20:17:33.131Z,3.43
2023-07-09T20:19:42.346Z,2.93
2023-07-09T20:21:52.299Z,2.67
2023-07-09T20:24:01.100Z,3.00
2023-07-09T20:26:11.424Z,3.67
2023-07-09T20:28:23.357Z,3.07
2023-07-09T20:30:32.242Z,3.30
2023-07-09T20:32:41.462Z,4.03
2023-07-09T20:34:53.512Z,3.10
2023-07-09T20:37:03.433Z,2.30
2023-07-09T20:39:13.951Z,2.80
2023-07-09T20:41:23.852Z,2.47
2023-07-09T20:43:36.425Z,3.93
2023-07-09T20:45:44.993Z,3.00
2023-07-09T20:47:54.297Z,3.20
2023-07-09T20:50:02.784Z,2.80
2023-07-09T20:52:12.952Z,3.90
2023-07-09T20:54:21.406Z,3.60
2023-07-09T20:56:31.227Z,4.17
2023-07-09T20:58:40.107Z,5.47
2023-07-09T21:00:49.375Z,4.83
2023-07-09T21:02:58.045Z,4.57
2023-07-09T21:05:06.878Z,3.17
2023-07-09T21:07:16.748Z,2.97
2023-07-09T21:09:33.985Z,2.80
2023-07-09T21:11:42.537Z,3.00
2023-07-09T21:13:51.111Z,2.43
2023-07-09T21:16:03.007Z,2.70
2023-07-09T21:18:17.932Z,2.90
2023-07-09T21:20:27.448Z,2.50
2023-07-09T21:22:37.335Z,2.93
2023-07-09T21:24:46.346Z,3.40
2023-07-09T21:26:57.546Z,3.70
2023-07-09T21:29:06.020Z,2.63
2023-07-09T21:31:18.627Z,2.87
2023-07-09T21:33:30.770Z,4.53
2023-07-09T21:35:40.345Z,3.40
2023-07-09T21:37:50.197Z,2.40
2023-07-09T21:39:58.685Z,2.77
2023-07-09T21:42:07.755Z,3.73
2023-07-09T21:44:16.907Z,2.20
2023-07-09T21:46:28.906Z,2.40
2023-07-09T21:48:37.518Z,2.23
2023-07-09T21:50:46.083Z,3.13
2023-07-09T21:52:56.936Z,3.33
2023-07-09T21:55:12.197Z,2.53
2023-07-09T21:57:22.007Z,2.40
2023-07-09T21:59:31.887Z,2.40
2023-07-09T22:01:41.745Z,2.30
2023-07-09T22:03:50.363Z,2.40
2023-07-09T22:06:00.507Z,3.10
2023-07-09T22:08:15.918Z,2.33
2023-07-09T22:10:27.223Z,2.23
2023-07-09T22:12:36.125Z,4.00
2023-07-09T22:14:44.744Z,2.70
2023-07-09T22:16:54.802Z,2.87
2023-07-09T22:19:06.390Z,3.60
2023-07-09T22:21:14.967Z,2.83
2023-07-09T22:23:27.387Z,2.60
2023-07-09T22:25:35.879Z,2.67
2023-07-09T22:27:44.486Z,5.03
2023-07-09T22:29:53.034Z,3.50
2023-07-09T22:32:00.684Z,2.20
2023-07-09T22:34:15.760Z,2.20
2023-07-09T22:36:24.194Z,1.90
2023-07-09T22:38:37.143Z,2.87
2023-07-09T22:40:46.546Z,1.87
2023-07-09T22:42:55.832Z,2.10
2023-07-09T22:45:04.318Z,2.80
2023-07-09T22:47:17.124Z,3.93
2023-07-09T22:49:26.620Z,2.83
2023-07-09T22:51:36.591Z,2.43
2023-07-09T22:53:46.489Z,2.00
2023-07-09T22:55:55.705Z,2.47
2023-07-09T22:58:05.028Z,2.70
2023-07-09T23:00:14.351Z,2.87
2023-07-09T23:02:28.518Z,2.23
2023-07-09T23:04:37.435Z,2.10
2023-07-09T23:06:46.086Z,4.03
2023-07-09T23:08:56.972Z,5.03
2023-07-09T23:11:05.606Z,2.17
2023-07-09T23:13:14.084Z,3.37
2023-07-09T23:15:24.866Z,5.10
2023-07-09T23:17:33.482Z,2.53
2023-07-09T23:19:42.011Z,2.20
2023-07-09T23:21:50.659Z,2.37
2023-07-09T23:24:02.019Z,2.20
2023-07-09T23:26:12.665Z,2.40
2023-07-09T23:28:21.139Z,2.37
2023-07-09T23:30:30.702Z,2.20
2023-07-09T23:32:41.017Z,4.23
2023-07-09T23:34:49.610Z,1.97
2023-07-09T23:36:58.524Z,2.10
2023-07-09T23:39:08.501Z,2.60
2023-07-09T23:41:20.820Z,2.30
2023-07-09T23:43:31.770Z,2.93
2023-07-09T23:45:43.233Z,2.30
2023-07-09T23:47:53.756Z,4.93
2023-07-09T23:50:02.259Z,2.27
2023-07-09T23:52:12.573Z,4.40
2023-07-09T23:54:22.519Z,4.00
2023-07-09T23:56:33.931Z,2.57
2023-07-09T23:58:42.925Z,2.83
